Smithland, Texas
Current Conditions -  °F | °C
As of 6:35 PM on Wednesday 22 Oct 2014 (Local Time) from KASL Reporting Station
Clear Clear  
Wind Chill: 73°   Ceiling: Unl
Heat Index: 73°   Visibility: 10mi
Dew Point: 56°   Wind: 0mph
Humidity: 54%   Direction: NA
Pressure: 30.11"   Gusts: NA
Location:  32.7902°N, 94.3019°W
Report Text: KASL 222335Z AUTO 00000KT 10SM CLR 23/13 A3011 RMK AO1 T02300132
Loading
Personal Weather Stations






























Interactive Weather Map
Tropical Storm Tracking
New forecast layout! Learn more

10-Day Weather Forecast

Advertisements
Track Severe Weather on mobile